sensor_id;sensor_type;location;lat;lon;timestamp;P1;durP1;ratioP1;P2;durP2;ratioP2
80621;SDS011;69980;51.914;7.526;2023-07-31T00:00:07;3.22;;;2.70;;
80621;SDS011;69980;51.914;7.526;2023-07-31T00:02:32;3.00;;;2.50;;
80621;SDS011;69980;51.914;7.526;2023-07-31T00:04:58;5.07;;;2.38;;
80621;SDS011;69980;51.914;7.526;2023-07-31T00:07:23;3.08;;;1.70;;
80621;SDS011;69980;51.914;7.526;2023-07-31T00:09:49;2.63;;;1.50;;
80621;SDS011;69980;51.914;7.526;2023-07-31T00:12:14;2.90;;;1.52;;
80621;SDS011;69980;51.914;7.526;2023-07-31T00:14:39;2.03;;;1.08;;
80621;SDS011;69980;51.914;7.526;2023-07-31T00:17:05;3.08;;;1.27;;
80621;SDS011;69980;51.914;7.526;2023-07-31T00:19:30;4.22;;;1.25;;
80621;SDS011;69980;51.914;7.526;2023-07-31T00:21:56;2.58;;;1.30;;
80621;SDS011;69980;51.914;7.526;2023-07-31T00:24:22;2.60;;;1.05;;
80621;SDS011;69980;51.914;7.526;2023-07-31T00:26:47;2.30;;;1.10;;
80621;SDS011;69980;51.914;7.526;2023-07-31T00:29:12;2.05;;;1.10;;
80621;SDS011;69980;51.914;7.526;2023-07-31T00:31:38;3.40;;;1.20;;
80621;SDS011;69980;51.914;7.526;2023-07-31T00:34:03;3.70;;;1.10;;
80621;SDS011;69980;51.914;7.526;2023-07-31T00:36:28;2.47;;;0.98;;
80621;SDS011;69980;51.914;7.526;2023-07-31T00:38:54;2.47;;;1.10;;
80621;SDS011;69980;51.914;7.526;2023-07-31T00:41:19;4.05;;;1.30;;
80621;SDS011;69980;51.914;7.526;2023-07-31T00:43:44;3.22;;;1.25;;
80621;SDS011;69980;51.914;7.526;2023-07-31T00:46:09;2.22;;;1.13;;
80621;SDS011;69980;51.914;7.526;2023-07-31T00:48:35;2.33;;;1.10;;
80621;SDS011;69980;51.914;7.526;2023-07-31T00:51:00;2.20;;;1.23;;
80621;SDS011;69980;51.914;7.526;2023-07-31T00:53:26;3.22;;;1.23;;
80621;SDS011;69980;51.914;7.526;2023-07-31T00:55:52;2.20;;;1.00;;
80621;SDS011;69980;51.914;7.526;2023-07-31T00:58:18;2.17;;;1.10;;
80621;SDS011;69980;51.914;7.526;2023-07-31T01:00:43;2.22;;;0.90;;
80621;SDS011;69980;51.914;7.526;2023-07-31T01:03:08;2.42;;;0.95;;
80621;SDS011;69980;51.914;7.526;2023-07-31T01:05:37;2.40;;;1.00;;
80621;SDS011;69980;51.914;7.526;2023-07-31T01:08:04;2.50;;;0.90;;
80621;SDS011;69980;51.914;7.526;2023-07-31T01:10:37;2.22;;;0.98;;
80621;SDS011;69980;51.914;7.526;2023-07-31T01:13:07;2.60;;;1.20;;
80621;SDS011;69980;51.914;7.526;2023-07-31T01:15:32;2.88;;;1.08;;
80621;SDS011;69980;51.914;7.526;2023-07-31T01:17:58;2.38;;;1.05;;
80621;SDS011;69980;51.914;7.526;2023-07-31T01:20:24;1.70;;;0.80;;
80621;SDS011;69980;51.914;7.526;2023-07-31T01:31:22;1.75;;;0.77;;
80621;SDS011;69980;51.914;7.526;2023-07-31T01:33:49;2.13;;;0.80;;
80621;SDS011;69980;51.914;7.526;2023-07-31T01:36:15;2.20;;;1.10;;
80621;SDS011;69980;51.914;7.526;2023-07-31T01:38:40;3.03;;;0.73;;
80621;SDS011;69980;51.914;7.526;2023-07-31T01:41:06;2.30;;;0.63;;
80621;SDS011;69980;51.914;7.526;2023-07-31T01:43:31;1.90;;;0.80;;
80621;SDS011;69980;51.914;7.526;2023-07-31T01:45:56;1.63;;;0.70;;
80621;SDS011;69980;51.914;7.526;2023-07-31T01:48:22;1.67;;;0.68;;
80621;SDS011;69980;51.914;7.526;2023-07-31T01:50:47;1.83;;;0.60;;
80621;SDS011;69980;51.914;7.526;2023-07-31T01:53:12;1.58;;;0.70;;
80621;SDS011;69980;51.914;7.526;2023-07-31T01:55:39;1.70;;;0.80;;
80621;SDS011;69980;51.914;7.526;2023-07-31T01:58:04;1.70;;;0.70;;
80621;SDS011;69980;51.914;7.526;2023-07-31T02:00:29;2.53;;;0.82;;
80621;SDS011;69980;51.914;7.526;2023-07-31T02:02:55;1.50;;;0.82;;
80621;SDS011;69980;51.914;7.526;2023-07-31T02:05:20;2.40;;;1.15;;
80621;SDS011;69980;51.914;7.526;2023-07-31T02:07:45;3.00;;;1.70;;
80621;SDS011;69980;51.914;7.526;2023-07-31T02:10:11;4.28;;;2.25;;
80621;SDS011;69980;51.914;7.526;2023-07-31T02:12:37;5.15;;;2.65;;
80621;SDS011;69980;51.914;7.526;2023-07-31T02:15:02;6.78;;;3.85;;
80621;SDS011;69980;51.914;7.526;2023-07-31T02:17:28;7.55;;;4.20;;
80621;SDS011;69980;51.914;7.526;2023-07-31T02:19:53;8.93;;;4.72;;
80621;SDS011;69980;51.914;7.526;2023-07-31T02:22:18;12.07;;;5.28;;
80621;SDS011;69980;51.914;7.526;2023-07-31T02:24:44;13.13;;;6.10;;
80621;SDS011;69980;51.914;7.526;2023-07-31T02:27:09;13.77;;;6.25;;
80621;SDS011;69980;51.914;7.526;2023-07-31T02:29:34;15.10;;;6.88;;
80621;SDS011;69980;51.914;7.526;2023-07-31T02:31:59;13.88;;;6.20;;
80621;SDS011;69980;51.914;7.526;2023-07-31T02:34:25;13.93;;;6.68;;
80621;SDS011;69980;51.914;7.526;2023-07-31T02:36:50;16.10;;;7.03;;
80621;SDS011;69980;51.914;7.526;2023-07-31T02:39:15;13.13;;;6.18;;
80621;SDS011;69980;51.914;7.526;2023-07-31T02:41:41;14.68;;;6.78;;
80621;SDS011;69980;51.914;7.526;2023-07-31T02:44:06;14.13;;;6.50;;
80621;SDS011;69980;51.914;7.526;2023-07-31T02:46:31;14.85;;;7.20;;
80621;SDS011;69980;51.914;7.526;2023-07-31T02:48:56;16.73;;;6.95;;
80621;SDS011;69980;51.914;7.526;2023-07-31T02:51:22;14.05;;;6.53;;
80621;SDS011;69980;51.914;7.526;2023-07-31T02:53:47;14.48;;;6.43;;
80621;SDS011;69980;51.914;7.526;2023-07-31T02:56:13;13.75;;;6.70;;
80621;SDS011;69980;51.914;7.526;2023-07-31T02:58:38;13.98;;;6.00;;
80621;SDS011;69980;51.914;7.526;2023-07-31T03:01:03;16.63;;;6.68;;
80621;SDS011;69980;51.914;7.526;2023-07-31T03:03:29;15.25;;;6.40;;
80621;SDS011;69980;51.914;7.526;2023-07-31T03:05:54;14.02;;;6.13;;
80621;SDS011;69980;51.914;7.526;2023-07-31T03:08:19;14.98;;;5.53;;
80621;SDS011;69980;51.914;7.526;2023-07-31T03:10:45;13.63;;;6.35;;
80621;SDS011;69980;51.914;7.526;2023-07-31T03:13:10;15.50;;;6.05;;
80621;SDS011;69980;51.914;7.526;2023-07-31T03:15:35;11.95;;;5.53;;
80621;SDS011;69980;51.914;7.526;2023-07-31T03:18:01;12.38;;;5.43;;
80621;SDS011;69980;51.914;7.526;2023-07-31T03:20:26;10.55;;;5.28;;
80621;SDS011;69980;51.914;7.526;2023-07-31T03:22:51;14.75;;;5.18;;
80621;SDS011;69980;51.914;7.526;2023-07-31T03:25:17;13.93;;;5.45;;
80621;SDS011;69980;51.914;7.526;2023-07-31T03:27:42;13.07;;;5.03;;
80621;SDS011;69980;51.914;7.526;2023-07-31T03:30:07;12.60;;;5.75;;
80621;SDS011;69980;51.914;7.526;2023-07-31T03:32:33;12.00;;;5.25;;
80621;SDS011;69980;51.914;7.526;2023-07-31T03:34:58;14.77;;;5.35;;
80621;SDS011;69980;51.914;7.526;2023-07-31T03:37:23;12.57;;;4.95;;
80621;SDS011;69980;51.914;7.526;2023-07-31T03:39:48;13.32;;;4.70;;
80621;SDS011;69980;51.914;7.526;2023-07-31T03:42:14;12.45;;;4.97;;
80621;SDS011;69980;51.914;7.526;2023-07-31T03:44:39;13.25;;;5.18;;
80621;SDS011;69980;51.914;7.526;2023-07-31T03:47:04;12.82;;;5.03;;
80621;SDS011;69980;51.914;7.526;2023-07-31T03:49:30;15.43;;;4.90;;
80621;SDS011;69980;51.914;7.526;2023-07-31T03:51:55;12.90;;;5.00;;
80621;SDS011;69980;51.914;7.526;2023-07-31T03:54:21;15.57;;;5.30;;
80621;SDS011;69980;51.914;7.526;2023-07-31T03:56:46;13.43;;;5.45;;
80621;SDS011;69980;51.914;7.526;2023-07-31T03:59:11;15.82;;;5.55;;
80621;SDS011;69980;51.914;7.526;2023-07-31T04:01:36;10.55;;;5.10;;
80621;SDS011;69980;51.914;7.526;2023-07-31T04:04:02;15.60;;;4.75;;
80621;SDS011;69980;51.914;7.526;2023-07-31T04:06:27;12.00;;;4.85;;
80621;SDS011;69980;51.914;7.526;2023-07-31T04:08:52;11.85;;;4.95;;
80621;SDS011;69980;51.914;7.526;2023-07-31T04:11:18;10.98;;;4.80;;
80621;SDS011;69980;51.914;7.526;2023-07-31T04:13:43;14.13;;;5.07;;
80621;SDS011;69980;51.914;7.526;2023-07-31T04:16:08;12.18;;;4.93;;
80621;SDS011;69980;51.914;7.526;2023-07-31T04:18:33;10.27;;;4.53;;
80621;SDS011;69980;51.914;7.526;2023-07-31T04:20:59;12.63;;;5.20;;
80621;SDS011;69980;51.914;7.526;2023-07-31T04:23:25;12.30;;;4.78;;
80621;SDS011;69980;51.914;7.526;2023-07-31T04:25:50;10.85;;;4.25;;
80621;SDS011;69980;51.914;7.526;2023-07-31T04:28:16;9.73;;;4.30;;
80621;SDS011;69980;51.914;7.526;2023-07-31T04:30:42;11.10;;;4.30;;
80621;SDS011;69980;51.914;7.526;2023-07-31T04:33:07;11.30;;;4.30;;
80621;SDS011;69980;51.914;7.526;2023-07-31T04:35:32;11.73;;;4.28;;
80621;SDS011;69980;51.914;7.526;2023-07-31T04:37:58;12.70;;;4.40;;
80621;SDS011;69980;51.914;7.526;2023-07-31T04:40:23;8.98;;;4.03;;
80621;SDS011;69980;51.914;7.526;2023-07-31T04:42:48;15.35;;;4.70;;
80621;SDS011;69980;51.914;7.526;2023-07-31T04:45:14;12.88;;;4.72;;
80621;SDS011;69980;51.914;7.526;2023-07-31T04:47:39;14.73;;;4.70;;
80621;SDS011;69980;51.914;7.526;2023-07-31T04:50:04;12.50;;;4.80;;
80621;SDS011;69980;51.914;7.526;2023-07-31T04:52:30;12.10;;;4.53;;
80621;SDS011;69980;51.914;7.526;2023-07-31T04:54:55;12.73;;;4.63;;
80621;SDS011;69980;51.914;7.526;2023-07-31T04:57:21;10.32;;;4.10;;
80621;SDS011;69980;51.914;7.526;2023-07-31T04:59:46;13.45;;;4.30;;
80621;SDS011;69980;51.914;7.526;2023-07-31T05:02:12;11.38;;;4.25;;
80621;SDS011;69980;51.914;7.526;2023-07-31T05:04:37;13.13;;;4.70;;
80621;SDS011;69980;51.914;7.526;2023-07-31T05:07:02;12.80;;;4.70;;
80621;SDS011;69980;51.914;7.526;2023-07-31T05:09:28;10.02;;;4.07;;
80621;SDS011;69980;51.914;7.526;2023-07-31T05:11:53;11.85;;;4.60;;
80621;SDS011;69980;51.914;7.526;2023-07-31T05:14:18;13.25;;;4.25;;
80621;SDS011;69980;51.914;7.526;2023-07-31T05:16:43;12.90;;;4.32;;
80621;SDS011;69980;51.914;7.526;2023-07-31T05:19:09;11.18;;;4.25;;
80621;SDS011;69980;51.914;7.526;2023-07-31T05:21:34;11.65;;;4.38;;
80621;SDS011;69980;51.914;7.526;2023-07-31T05:23:59;11.13;;;4.38;;
80621;SDS011;69980;51.914;7.526;2023-07-31T05:26:25;11.63;;;4.32;;
80621;SDS011;69980;51.914;7.526;2023-07-31T05:28:51;13.23;;;4.57;;
80621;SDS011;69980;51.914;7.526;2023-07-31T05:31:16;13.82;;;4.40;;
80621;SDS011;69980;51.914;7.526;2023-07-31T05:33:42;9.82;;;4.13;;
80621;SDS011;69980;51.914;7.526;2023-07-31T05:36:07;9.25;;;4.18;;
80621;SDS011;69980;51.914;7.526;2023-07-31T05:38:32;10.75;;;4.63;;
80621;SDS011;69980;51.914;7.526;2023-07-31T05:40:57;14.90;;;4.50;;
80621;SDS011;69980;51.914;7.526;2023-07-31T05:43:23;10.70;;;4.30;;
80621;SDS011;69980;51.914;7.526;2023-07-31T05:45:48;8.73;;;4.00;;
80621;SDS011;69980;51.914;7.526;2023-07-31T05:48:13;11.23;;;4.53;;
80621;SDS011;69980;51.914;7.526;2023-07-31T05:50:39;9.93;;;4.25;;
80621;SDS011;69980;51.914;7.526;2023-07-31T05:53:04;11.55;;;4.20;;
80621;SDS011;69980;51.914;7.526;2023-07-31T05:55:29;9.32;;;4.10;;
80621;SDS011;69980;51.914;7.526;2023-07-31T05:57:55;9.02;;;4.45;;
80621;SDS011;69980;51.914;7.526;2023-07-31T06:00:20;9.85;;;4.53;;
80621;SDS011;69980;51.914;7.526;2023-07-31T06:02:45;9.70;;;4.30;;
80621;SDS011;69980;51.914;7.526;2023-07-31T06:05:11;8.30;;;3.85;;
80621;SDS011;69980;51.914;7.526;2023-07-31T06:07:37;8.70;;;3.88;;
80621;SDS011;69980;51.914;7.526;2023-07-31T06:10:02;11.20;;;4.20;;
80621;SDS011;69980;51.914;7.526;2023-07-31T06:12:28;10.25;;;4.28;;
80621;SDS011;69980;51.914;7.526;2023-07-31T06:14:54;8.88;;;3.75;;
80621;SDS011;69980;51.914;7.526;2023-07-31T06:17:19;8.85;;;3.72;;
80621;SDS011;69980;51.914;7.526;2023-07-31T06:19:44;10.63;;;4.25;;
80621;SDS011;69980;51.914;7.526;2023-07-31T06:22:10;11.10;;;3.97;;
80621;SDS011;69980;51.914;7.526;2023-07-31T06:24:35;11.30;;;4.05;;
80621;SDS011;69980;51.914;7.526;2023-07-31T06:27:00;11.32;;;3.88;;
80621;SDS011;69980;51.914;7.526;2023-07-31T06:29:25;13.05;;;4.32;;
80621;SDS011;69980;51.914;7.526;2023-07-31T06:31:51;13.75;;;4.15;;
80621;SDS011;69980;51.914;7.526;2023-07-31T06:34:16;8.57;;;3.70;;
80621;SDS011;69980;51.914;7.526;2023-07-31T06:36:42;9.80;;;3.83;;
80621;SDS011;69980;51.914;7.526;2023-07-31T06:39:07;12.73;;;4.40;;
80621;SDS011;69980;51.914;7.526;2023-07-31T06:41:32;11.05;;;4.20;;
80621;SDS011;69980;51.914;7.526;2023-07-31T06:43:58;9.80;;;3.90;;
80621;SDS011;69980;51.914;7.526;2023-07-31T06:46:23;9.02;;;3.72;;
80621;SDS011;69980;51.914;7.526;2023-07-31T06:48:48;8.07;;;3.72;;
80621;SDS011;69980;51.914;7.526;2023-07-31T06:51:13;9.77;;;3.72;;
80621;SDS011;69980;51.914;7.526;2023-07-31T06:53:39;10.93;;;4.38;;
80621;SDS011;69980;51.914;7.526;2023-07-31T06:56:04;10.80;;;4.43;;
80621;SDS011;69980;51.914;7.526;2023-07-31T06:58:29;8.80;;;4.32;;
80621;SDS011;69980;51.914;7.526;2023-07-31T07:00:55;9.07;;;4.15;;
80621;SDS011;69980;51.914;7.526;2023-07-31T07:03:21;11.88;;;4.53;;
80621;SDS011;69980;51.914;7.526;2023-07-31T07:05:46;8.05;;;4.18;;
80621;SDS011;69980;51.914;7.526;2023-07-31T07:08:11;10.57;;;4.30;;
80621;SDS011;69980;51.914;7.526;2023-07-31T07:10:37;9.80;;;4.78;;
80621;SDS011;69980;51.914;7.526;2023-07-31T07:13:02;9.25;;;5.05;;
80621;SDS011;69980;51.914;7.526;2023-07-31T07:15:27;10.27;;;4.93;;
80621;SDS011;69980;51.914;7.526;2023-07-31T07:17:53;8.27;;;4.57;;
80621;SDS011;69980;51.914;7.526;2023-07-31T07:20:18;9.20;;;5.32;;
80621;SDS011;69980;51.914;7.526;2023-07-31T07:22:43;8.90;;;4.68;;
80621;SDS011;69980;51.914;7.526;2023-07-31T07:25:09;9.85;;;5.20;;
80621;SDS011;69980;51.914;7.526;2023-07-31T07:27:34;9.60;;;4.55;;
80621;SDS011;69980;51.914;7.526;2023-07-31T07:29:59;8.85;;;4.53;;
80621;SDS011;69980;51.914;7.526;2023-07-31T07:32:25;7.65;;;5.10;;
80621;SDS011;69980;51.914;7.526;2023-07-31T07:34:50;9.98;;;5.18;;
80621;SDS011;69980;51.914;7.526;2023-07-31T07:37:16;8.25;;;5.32;;
80621;SDS011;69980;51.914;7.526;2023-07-31T07:39:41;8.40;;;5.30;;
80621;SDS011;69980;51.914;7.526;2023-07-31T07:42:06;9.88;;;5.15;;
80621;SDS011;69980;51.914;7.526;2023-07-31T07:44:32;9.30;;;5.07;;
80621;SDS011;69980;51.914;7.526;2023-07-31T07:46:57;8.48;;;4.55;;
80621;SDS011;69980;51.914;7.526;2023-07-31T07:49:22;7.28;;;4.43;;
80621;SDS011;69980;51.914;7.526;2023-07-31T07:51:48;5.50;;;4.32;;
80621;SDS011;69980;51.914;7.526;2023-07-31T07:54:14;7.03;;;4.40;;
80621;SDS011;69980;51.914;7.526;2023-07-31T07:56:39;5.53;;;4.07;;
80621;SDS011;69980;51.914;7.526;2023-07-31T07:59:04;6.25;;;4.60;;
80621;SDS011;69980;51.914;7.526;2023-07-31T08:01:30;6.35;;;4.45;;
80621;SDS011;69980;51.914;7.526;2023-07-31T08:03:55;6.70;;;4.30;;
80621;SDS011;69980;51.914;7.526;2023-07-31T08:06:20;5.40;;;3.92;;
80621;SDS011;69980;51.914;7.526;2023-07-31T08:08:46;7.68;;;4.70;;
80621;SDS011;69980;51.914;7.526;2023-07-31T08:11:11;7.57;;;4.40;;
80621;SDS011;69980;51.914;7.526;2023-07-31T08:13:36;5.82;;;4.70;;
80621;SDS011;69980;51.914;7.526;2023-07-31T08:16:02;4.75;;;4.03;;
80621;SDS011;69980;51.914;7.526;2023-07-31T08:18:30;6.05;;;4.50;;
80621;SDS011;69980;51.914;7.526;2023-07-31T08:20:56;8.18;;;4.40;;
80621;SDS011;69980;51.914;7.526;2023-07-31T08:23:21;6.65;;;4.05;;
80621;SDS011;69980;51.914;7.526;2023-07-31T08:25:46;4.82;;;3.95;;
80621;SDS011;69980;51.914;7.526;2023-07-31T08:28:12;5.43;;;4.05;;
80621;SDS011;69980;51.914;7.526;2023-07-31T08:30:37;5.00;;;3.53;;
80621;SDS011;69980;51.914;7.526;2023-07-31T08:33:02;5.45;;;3.33;;
80621;SDS011;69980;51.914;7.526;2023-07-31T08:35:28;4.57;;;3.47;;
80621;SDS011;69980;51.914;7.526;2023-07-31T08:37:54;4.30;;;3.10;;
80621;SDS011;69980;51.914;7.526;2023-07-31T08:40:20;5.72;;;3.40;;
80621;SDS011;69980;51.914;7.526;2023-07-31T08:42:46;4.03;;;3.25;;
80621;SDS011;69980;51.914;7.526;2023-07-31T08:45:16;4.43;;;2.95;;
80621;SDS011;69980;51.914;7.526;2023-07-31T08:47:47;3.72;;;2.90;;
80621;SDS011;69980;51.914;7.526;2023-07-31T08:50:13;4.88;;;3.10;;
80621;SDS011;69980;51.914;7.526;2023-07-31T08:52:41;5.25;;;3.13;;
80621;SDS011;69980;51.914;7.526;2023-07-31T08:55:07;4.45;;;2.78;;
80621;SDS011;69980;51.914;7.526;2023-07-31T08:57:33;3.92;;;2.80;;
80621;SDS011;69980;51.914;7.526;2023-07-31T08:59:59;4.30;;;2.58;;
80621;SDS011;69980;51.914;7.526;2023-07-31T09:02:25;4.45;;;2.60;;
80621;SDS011;69980;51.914;7.526;2023-07-31T09:04:55;4.32;;;2.55;;
80621;SDS011;69980;51.914;7.526;2023-07-31T09:07:20;4.47;;;2.70;;
80621;SDS011;69980;51.914;7.526;2023-07-31T09:09:47;3.83;;;2.33;;
80621;SDS011;69980;51.914;7.526;2023-07-31T09:12:12;3.80;;;2.40;;
80621;SDS011;69980;51.914;7.526;2023-07-31T09:14:38;3.88;;;2.63;;
80621;SDS011;69980;51.914;7.526;2023-07-31T09:17:03;3.55;;;2.85;;
80621;SDS011;69980;51.914;7.526;2023-07-31T09:19:32;4.68;;;3.13;;
80621;SDS011;69980;51.914;7.526;2023-07-31T09:21:58;4.93;;;2.63;;
80621;SDS011;69980;51.914;7.526;2023-07-31T09:24:30;4.47;;;3.42;;
80621;SDS011;69980;51.914;7.526;2023-07-31T09:26:57;4.65;;;3.20;;
80621;SDS011;69980;51.914;7.526;2023-07-31T09:29:24;3.63;;;2.80;;
80621;SDS011;69980;51.914;7.526;2023-07-31T09:31:50;4.53;;;3.20;;
80621;SDS011;69980;51.914;7.526;2023-07-31T09:34:16;5.65;;;3.40;;
80621;SDS011;69980;51.914;7.526;2023-07-31T09:36:41;4.68;;;3.05;;
80621;SDS011;69980;51.914;7.526;2023-07-31T09:39:10;4.75;;;2.90;;
80621;SDS011;69980;51.914;7.526;2023-07-31T09:41:37;5.25;;;3.15;;
80621;SDS011;69980;51.914;7.526;2023-07-31T09:44:04;5.18;;;2.95;;
80621;SDS011;69980;51.914;7.526;2023-07-31T09:46:30;3.90;;;2.90;;
80621;SDS011;69980;51.914;7.526;2023-07-31T09:49:12;4.13;;;2.95;;
80621;SDS011;69980;51.914;7.526;2023-07-31T09:51:39;3.83;;;2.83;;
80621;SDS011;69980;51.914;7.526;2023-07-31T09:54:11;4.53;;;3.13;;
80621;SDS011;69980;51.914;7.526;2023-07-31T09:56:44;3.85;;;2.90;;
80621;SDS011;69980;51.914;7.526;2023-07-31T09:59:17;5.15;;;2.95;;
80621;SDS011;69980;51.914;7.526;2023-07-31T10:01:44;3.35;;;2.45;;
80621;SDS011;69980;51.914;7.526;2023-07-31T10:04:11;5.45;;;2.60;;
80621;SDS011;69980;51.914;7.526;2023-07-31T10:06:37;5.28;;;2.90;;
80621;SDS011;69980;51.914;7.526;2023-07-31T10:09:05;4.20;;;2.60;;
80621;SDS011;69980;51.914;7.526;2023-07-31T10:11:34;3.72;;;2.60;;
80621;SDS011;69980;51.914;7.526;2023-07-31T10:14:04;4.35;;;2.67;;
80621;SDS011;69980;51.914;7.526;2023-07-31T10:16:31;3.75;;;2.60;;
80621;SDS011;69980;51.914;7.526;2023-07-31T10:18:57;3.42;;;2.72;;
80621;SDS011;69980;51.914;7.526;2023-07-31T10:21:24;3.78;;;2.50;;
80621;SDS011;69980;51.914;7.526;2023-07-31T10:23:50;3.92;;;2.83;;
80621;SDS011;69980;51.914;7.526;2023-07-31T10:26:17;3.85;;;2.80;;
80621;SDS011;69980;51.914;7.526;2023-07-31T10:28:44;3.92;;;2.78;;
80621;SDS011;69980;51.914;7.526;2023-07-31T10:31:10;3.38;;;2.65;;
80621;SDS011;69980;51.914;7.526;2023-07-31T10:33:36;3.65;;;2.85;;
80621;SDS011;69980;51.914;7.526;2023-07-31T10:36:12;3.53;;;2.50;;
80621;SDS011;69980;51.914;7.526;2023-07-31T10:38:49;5.05;;;3.03;;
80621;SDS011;69980;51.914;7.526;2023-07-31T10:41:14;4.53;;;3.03;;
80621;SDS011;69980;51.914;7.526;2023-07-31T10:43:40;4.15;;;2.90;;
80621;SDS011;69980;51.914;7.526;2023-07-31T10:46:09;3.92;;;3.20;;
80621;SDS011;69980;51.914;7.526;2023-07-31T10:48:38;4.07;;;2.95;;
80621;SDS011;69980;51.914;7.526;2023-07-31T10:51:08;4.10;;;3.00;;
80621;SDS011;69980;51.914;7.526;2023-07-31T10:53:34;3.42;;;2.90;;
80621;SDS011;69980;51.914;7.526;2023-07-31T10:56:00;4.30;;;3.30;;
80621;SDS011;69980;51.914;7.526;2023-07-31T10:58:25;4.35;;;2.90;;
80621;SDS011;69980;51.914;7.526;2023-07-31T11:00:51;4.75;;;3.25;;
80621;SDS011;69980;51.914;7.526;2023-07-31T11:03:24;4.05;;;3.25;;
80621;SDS011;69980;51.914;7.526;2023-07-31T11:06:08;3.90;;;3.05;;
80621;SDS011;69980;51.914;7.526;2023-07-31T11:08:35;4.05;;;3.10;;
80621;SDS011;69980;51.914;7.526;2023-07-31T11:13:32;5.30;;;3.60;;
80621;SDS011;69980;51.914;7.526;2023-07-31T11:18:40;4.40;;;2.87;;
80621;SDS011;69980;51.914;7.526;2023-07-31T11:21:06;5.18;;;2.88;;
80621;SDS011;69980;51.914;7.526;2023-07-31T11:23:31;3.40;;;2.65;;
80621;SDS011;69980;51.914;7.526;2023-07-31T11:25:59;4.22;;;2.70;;
80621;SDS011;69980;51.914;7.526;2023-07-31T11:28:24;3.70;;;2.95;;
80621;SDS011;69980;51.914;7.526;2023-07-31T11:30:50;4.32;;;2.65;;
80621;SDS011;69980;51.914;7.526;2023-07-31T11:33:15;4.05;;;3.42;;
80621;SDS011;69980;51.914;7.526;2023-07-31T11:35:41;3.70;;;3.17;;
80621;SDS011;69980;51.914;7.526;2023-07-31T11:38:08;4.60;;;4.10;;
80621;SDS011;69980;51.914;7.526;2023-07-31T11:40:41;4.53;;;4.00;;
80621;SDS011;69980;51.914;7.526;2023-07-31T11:43:07;5.38;;;4.10;;
80621;SDS011;69980;51.914;7.526;2023-07-31T11:45:32;5.40;;;4.60;;
80621;SDS011;69980;51.914;7.526;2023-07-31T11:47:58;5.88;;;5.28;;
80621;SDS011;69980;51.914;7.526;2023-07-31T11:50:23;6.30;;;5.70;;
80621;SDS011;69980;51.914;7.526;2023-07-31T11:52:49;7.65;;;5.90;;
80621;SDS011;69980;51.914;7.526;2023-07-31T11:55:17;6.40;;;5.80;;
80621;SDS011;69980;51.914;7.526;2023-07-31T11:57:43;6.63;;;6.03;;
80621;SDS011;69980;51.914;7.526;2023-07-31T12:00:09;7.70;;;6.55;;
80621;SDS011;69980;51.914;7.526;2023-07-31T12:02:35;7.53;;;6.10;;
80621;SDS011;69980;51.914;7.526;2023-07-31T12:05:00;7.05;;;6.28;;
80621;SDS011;69980;51.914;7.526;2023-07-31T12:07:26;6.80;;;5.97;;
80621;SDS011;69980;51.914;7.526;2023-07-31T12:09:54;6.32;;;5.70;;
80621;SDS011;69980;51.914;7.526;2023-07-31T12:12:23;6.78;;;5.90;;
80621;SDS011;69980;51.914;7.526;2023-07-31T12:14:49;6.30;;;4.80;;
80621;SDS011;69980;51.914;7.526;2023-07-31T12:17:14;6.28;;;4.82;;
80621;SDS011;69980;51.914;7.526;2023-07-31T12:19:40;6.78;;;4.60;;
80621;SDS011;69980;51.914;7.526;2023-07-31T12:22:15;5.07;;;4.13;;
80621;SDS011;69980;51.914;7.526;2023-07-31T12:24:41;7.15;;;4.15;;
80621;SDS011;69980;51.914;7.526;2023-07-31T12:27:09;6.55;;;4.10;;
80621;SDS011;69980;51.914;7.526;2023-07-31T12:29:36;6.65;;;4.10;;
80621;SDS011;69980;51.914;7.526;2023-07-31T12:32:01;8.02;;;4.20;;
80621;SDS011;69980;51.914;7.526;2023-07-31T12:34:27;6.18;;;3.70;;
80621;SDS011;69980;51.914;7.526;2023-07-31T12:36:53;5.25;;;3.67;;
80621;SDS011;69980;51.914;7.526;2023-07-31T12:39:18;5.90;;;3.70;;
80621;SDS011;69980;51.914;7.526;2023-07-31T12:41:44;4.85;;;3.80;;
80621;SDS011;69980;51.914;7.526;2023-07-31T12:44:09;5.68;;;3.95;;
80621;SDS011;69980;51.914;7.526;2023-07-31T12:46:34;3.95;;;3.45;;
80621;SDS011;69980;51.914;7.526;2023-07-31T12:49:00;4.78;;;3.55;;
80621;SDS011;69980;51.914;7.526;2023-07-31T12:51:28;4.25;;;3.10;;
80621;SDS011;69980;51.914;7.526;2023-07-31T12:53:53;3.83;;;2.80;;
80621;SDS011;69980;51.914;7.526;2023-07-31T12:56:19;4.35;;;3.22;;
80621;SDS011;69980;51.914;7.526;2023-07-31T12:58:44;6.28;;;3.35;;
80621;SDS011;69980;51.914;7.526;2023-07-31T13:01:09;4.88;;;3.03;;
80621;SDS011;69980;51.914;7.526;2023-07-31T13:03:34;3.20;;;2.70;;
80621;SDS011;69980;51.914;7.526;2023-07-31T13:06:00;5.60;;;3.10;;
80621;SDS011;69980;51.914;7.526;2023-07-31T13:08:25;5.50;;;2.90;;
80621;SDS011;69980;51.914;7.526;2023-07-31T13:10:50;5.40;;;2.90;;
80621;SDS011;69980;51.914;7.526;2023-07-31T13:13:16;4.90;;;3.38;;
80621;SDS011;69980;51.914;7.526;2023-07-31T13:15:41;4.90;;;3.42;;
80621;SDS011;69980;51.914;7.526;2023-07-31T13:18:06;6.18;;;3.40;;
80621;SDS011;69980;51.914;7.526;2023-07-31T13:20:32;4.78;;;3.40;;
80621;SDS011;69980;51.914;7.526;2023-07-31T13:22:57;3.95;;;3.05;;
80621;SDS011;69980;51.914;7.526;2023-07-31T13:25:22;4.78;;;3.30;;
80621;SDS011;69980;51.914;7.526;2023-07-31T13:27:47;5.18;;;3.38;;
80621;SDS011;69980;51.914;7.526;2023-07-31T13:30:13;5.53;;;3.75;;
80621;SDS011;69980;51.914;7.526;2023-07-31T13:32:38;4.70;;;3.85;;
80621;SDS011;69980;51.914;7.526;2023-07-31T13:35:07;6.03;;;3.72;;
80621;SDS011;69980;51.914;7.526;2023-07-31T13:37:32;4.07;;;3.67;;
80621;SDS011;69980;51.914;7.526;2023-07-31T13:39:58;4.70;;;3.80;;
80621;SDS011;69980;51.914;7.526;2023-07-31T13:42:23;5.78;;;3.90;;
80621;SDS011;69980;51.914;7.526;2023-07-31T13:44:48;4.45;;;3.65;;
80621;SDS011;69980;51.914;7.526;2023-07-31T13:47:14;5.75;;;3.60;;
80621;SDS011;69980;51.914;7.526;2023-07-31T13:49:40;6.47;;;3.33;;
80621;SDS011;69980;51.914;7.526;2023-07-31T13:52:05;5.63;;;3.40;;
80621;SDS011;69980;51.914;7.526;2023-07-31T13:54:31;4.30;;;3.85;;
80621;SDS011;69980;51.914;7.526;2023-07-31T13:56:56;5.20;;;3.50;;
80621;SDS011;69980;51.914;7.526;2023-07-31T13:59:22;5.50;;;3.42;;
80621;SDS011;69980;51.914;7.526;2023-07-31T14:01:47;4.60;;;3.58;;
80621;SDS011;69980;51.914;7.526;2023-07-31T14:04:12;4.25;;;3.85;;
80621;SDS011;69980;51.914;7.526;2023-07-31T14:06:38;4.50;;;3.75;;
80621;SDS011;69980;51.914;7.526;2023-07-31T14:09:03;3.80;;;3.38;;
80621;SDS011;69980;51.914;7.526;2023-07-31T14:11:30;5.22;;;3.47;;
80621;SDS011;69980;51.914;7.526;2023-07-31T14:13:56;4.50;;;3.60;;
80621;SDS011;69980;51.914;7.526;2023-07-31T14:16:21;5.03;;;3.35;;
80621;SDS011;69980;51.914;7.526;2023-07-31T14:18:46;4.20;;;2.95;;
80621;SDS011;69980;51.914;7.526;2023-07-31T14:21:12;4.45;;;2.83;;
80621;SDS011;69980;51.914;7.526;2023-07-31T14:23:37;4.60;;;3.00;;
80621;SDS011;69980;51.914;7.526;2023-07-31T14:26:02;3.58;;;2.92;;
80621;SDS011;69980;51.914;7.526;2023-07-31T14:28:28;4.45;;;2.85;;
80621;SDS011;69980;51.914;7.526;2023-07-31T14:30:53;5.68;;;3.15;;
80621;SDS011;69980;51.914;7.526;2023-07-31T14:33:18;4.45;;;3.22;;
80621;SDS011;69980;51.914;7.526;2023-07-31T14:35:44;4.35;;;3.00;;
80621;SDS011;69980;51.914;7.526;2023-07-31T14:38:09;4.90;;;3.08;;
80621;SDS011;69980;51.914;7.526;2023-07-31T14:40:34;5.15;;;3.80;;
80621;SDS011;69980;51.914;7.526;2023-07-31T14:42:59;4.38;;;3.78;;
80621;SDS011;69980;51.914;7.526;2023-07-31T14:45:25;5.15;;;3.95;;
80621;SDS011;69980;51.914;7.526;2023-07-31T14:47:50;6.25;;;4.20;;